Time;durP1;ratioP1;P1;durP2;ratioP2;P2;SDS_P1;SDS_P2;PMS_P1;PMS_P2;Temp;Humidity;BMP_temperature;BMP_pressure;BME280_temperature;BME280_humidity;BME280_pressure;Samples;Min_cycle;Max_cycle;Signal;HPM_P1;HPM_P2
2023/06/26 00:02:54;;;;;;;19.67;18.50;;;23.40;99.90;;;;;;2612738;39;20537;-76
2023/06/26 00:08:43;;;;;;;20.13;18.87;;;22.80;99.90;;;;;;2611941;54;20511;-76
2023/06/26 00:14:31;;;;;;;19.90;18.80;;;22.70;99.90;;;;;;2610645;54;20455;-75
2023/06/26 00:17:30;;;;;;;19.33;18.33;;;22.70;99.90;;;;;;2612806;47;20427;-74
2023/06/26 00:19:56;;;;;;;19.53;18.50;;;22.70;99.90;;;;;;2611252;47;20167;-76
2023/06/26 00:25:44;;;;;;;20.20;19.00;;;22.60;99.90;;;;;;2613050;39;20529;-75
2023/06/26 00:31:32;;;;;;;20.43;19.33;;;22.80;99.90;;;;;;2614474;54;20431;-75
2023/06/26 00:37:21;;;;;;;19.37;18.27;;;22.70;99.90;;;;;;2612039;54;20159;-75
2023/06/26 00:43:09;;;;;;;20.43;19.23;;;22.80;99.90;;;;;;2613553;54;20921;-76
2023/06/26 00:48:59;;;;;;;20.47;19.27;;;22.80;99.90;;;;;;2612130;39;20530;-75
2023/06/26 00:54:48;;;;;;;21.10;19.73;;;22.30;99.90;;;;;;2611374;54;20387;-75
2023/06/26 01:00:35;;;;;;;20.30;19.13;;;22.30;99.90;;;;;;2611787;54;21025;-70
2023/06/26 01:06:25;;;;;;;19.20;18.20;;;22.20;99.90;;;;;;2612406;39;20567;-70
2023/06/26 01:12:14;;;;;;;19.03;17.73;;;22.00;99.90;;;;;;2610677;54;20376;-71
2023/06/26 01:22:04;;;;;;;19.37;18.30;;;21.40;99.90;;;;;;2610430;39;21220;-70
2023/06/26 01:27:54;;;;;;;20.40;19.30;;;21.50;99.90;;;;;;2613220;39;20530;-70
2023/06/26 01:33:43;;;;;;;20.10;18.93;;;21.70;99.90;;;;;;2611831;54;22485;-71
2023/06/26 01:39:30;;;;;;;19.50;18.20;;;21.50;99.90;;;;;;2611408;54;20391;-70
2023/06/26 01:52:03;;;;;;;20.20;19.00;;;21.20;99.90;;;;;;2612777;54;20408;-70
2023/06/26 01:57:55;;;;;;;22.20;20.73;;;21.30;99.90;;;;;;2610315;54;20941;-70
2023/06/26 02:03:42;;;;;;;20.53;19.40;;;21.30;99.90;;;;;;2612058;54;20391;-70
2023/06/26 02:09:30;;;;;;;20.97;19.70;;;21.20;99.90;;;;;;2612672;54;20126;-71
2023/06/26 02:15:21;;;;;;;20.67;19.37;;;21.10;99.90;;;;;;2611703;54;20222;-70
2023/06/26 02:24:32;;;;;;;20.33;19.23;;;21.30;99.90;;;;;;2612951;54;20415;-71
2023/06/26 02:30:20;;;;;;;20.13;19.00;;;21.50;99.90;;;;;;2613238;54;20910;-70
2023/06/26 02:36:08;;;;;;;20.40;19.20;;;21.40;99.90;;;;;;2611728;54;20134;-71
2023/06/26 02:41:56;;;;;;;20.27;19.17;;;21.80;99.90;;;;;;2611432;54;20154;-72
2023/06/26 02:47:43;;;;;;;19.50;18.40;;;21.30;99.90;;;;;;2612841;54;20130;-71
2023/06/26 02:53:31;;;;;;;19.30;18.20;;;21.50;99.90;;;;;;2611341;54;20686;-76
2023/06/26 02:59:19;;;;;;;20.30;18.40;;;21.40;99.90;;;;;;2611158;54;21099;-75
2023/06/26 03:05:08;;;;;;;20.20;19.00;;;21.30;99.90;;;;;;2613284;54;20267;-75
2023/06/26 03:10:55;;;;;;;20.00;18.47;;;21.30;99.90;;;;;;2613253;54;20387;-75
2023/06/26 03:16:43;;;;;;;19.90;18.77;;;21.20;99.90;;;;;;2613666;54;20155;-75
2023/06/26 03:20:01;;;;;;;20.53;19.13;;;21.10;99.90;;;;;;2610823;39;20820;-75
2023/06/26 03:22:26;;;;;;;20.13;18.83;;;21.10;99.90;;;;;;2612706;54;20479;-76
2023/06/26 03:28:15;;;;;;;20.20;18.90;;;21.20;99.90;;;;;;2614250;39;20509;-75
2023/06/26 03:34:03;;;;;;;21.27;19.47;;;21.40;99.90;;;;;;2614000;39;21002;-75
2023/06/26 03:39:50;;;;;;;21.20;20.00;;;21.60;99.90;;;;;;2609199;54;20283;-76
2023/06/26 03:45:38;;;;;;;19.90;18.73;;;21.60;99.90;;;;;;2613595;54;20143;-75
2023/06/26 03:51:26;;;;;;;20.23;18.97;;;21.50;99.90;;;;;;2613765;54;20150;-75
2023/06/26 03:57:14;;;;;;;20.30;19.10;;;21.80;99.90;;;;;;2612033;54;20207;-76
2023/06/26 04:03:02;;;;;;;19.47;18.27;;;22.00;99.90;;;;;;2612288;54;20127;-75
2023/06/26 04:08:50;;;;;;;18.37;17.27;;;22.10;99.90;;;;;;2611967;39;20912;-76
2023/06/26 04:14:38;;;;;;;19.33;18.23;;;22.00;99.90;;;;;;2613726;46;20138;-76
2023/06/26 04:24:34;;;;;;;19.50;18.10;;;21.90;99.90;;;;;;2612243;54;20407;-76
2023/06/26 04:30:22;;;;;;;18.90;17.70;;;21.80;99.90;;;;;;2613848;54;20371;-75
2023/06/26 04:36:11;;;;;;;19.57;18.20;;;21.80;99.90;;;;;;2611543;54;20123;-75
2023/06/26 04:41:59;;;;;;;18.47;17.27;;;21.90;99.90;;;;;;2611303;54;20455;-76
2023/06/26 04:47:46;;;;;;;18.87;17.67;;;21.90;99.90;;;;;;2611274;54;20966;-74
2023/06/26 04:53:34;;;;;;;17.40;16.20;;;22.10;99.90;;;;;;2611118;54;20134;-76
2023/06/26 04:59:22;;;;;;;17.23;16.13;;;22.20;99.90;;;;;;2610948;54;20183;-75
2023/06/26 05:05:10;;;;;;;16.50;15.40;;;22.30;99.90;;;;;;2611131;54;20171;-75
2023/06/26 05:10:58;;;;;;;18.20;17.00;;;22.50;99.90;;;;;;2611242;54;20130;-77
2023/06/26 05:16:46;;;;;;;15.90;15.00;;;22.30;99.90;;;;;;2611097;54;20444;-72
2023/06/26 05:20:00;;;;;;;17.23;15.93;;;22.30;99.90;;;;;;2612887;54;20435;-74
2023/06/26 05:22:26;;;;;;;16.13;15.00;;;22.10;99.90;;;;;;2611581;54;20147;-72
2023/06/26 05:28:15;;;;;;;16.20;14.90;;;22.70;99.90;;;;;;2614085;54;20130;-73
2023/06/26 05:34:04;;;;;;;17.07;15.90;;;23.00;99.90;;;;;;2614836;54;20383;-73
2023/06/26 05:39:52;;;;;;;18.90;17.50;;;23.00;99.90;;;;;;2614007;31;20846;-72
2023/06/26 05:45:40;;;;;;;18.43;17.23;;;23.20;99.90;;;;;;2610409;54;20138;-73
2023/06/26 05:51:28;;;;;;;17.73;16.53;;;23.00;99.90;;;;;;2609261;54;20395;-73
2023/06/26 05:57:17;;;;;;;19.50;18.10;;;22.10;99.90;;;;;;2608812;54;20382;-72
2023/06/26 06:03:05;;;;;;;17.47;16.10;;;21.90;99.90;;;;;;2612276;54;20550;-74
2023/06/26 06:08:53;;;;;;;18.33;16.63;;;22.20;99.90;;;;;;2612281;54;20182;-73
2023/06/26 06:14:41;;;;;;;18.20;17.07;;;23.10;99.90;;;;;;2613753;54;20133;-73
2023/06/26 06:30:54;;;;;;;15.67;14.77;;;23.10;99.90;;;;;;2610033;54;20403;-73
2023/06/26 06:36:41;;;;;;;16.67;15.47;;;23.10;99.90;;;;;;2609897;54;20158;-73
2023/06/26 06:42:32;;;;;;;15.97;14.47;;;21.60;99.90;;;;;;2610319;54;20134;-73
2023/06/26 06:48:19;;;;;;;17.93;16.43;;;20.80;99.90;;;;;;2612690;54;20379;-71
2023/06/26 06:54:06;;;;;;;19.13;17.50;;;21.00;99.90;;;;;;2613008;54;20122;-73
2023/06/26 06:59:54;;;;;;;17.37;16.17;;;21.30;99.90;;;;;;2611317;54;20146;-73
2023/06/26 07:05:42;;;;;;;18.10;16.47;;;21.60;99.90;;;;;;2613878;39;20810;-73
2023/06/26 07:11:30;;;;;;;16.83;15.30;;;22.30;99.90;;;;;;2611658;46;20423;-75
2023/06/26 07:17:18;;;;;;;16.47;15.17;;;22.70;99.90;;;;;;2613769;54;20154;-73
2023/06/26 07:20:10;;;;;;;19.70;14.90;;;22.40;99.90;;;;;;2614009;39;20498;-74
2023/06/26 07:22:36;;;;;;;16.07;14.53;;;22.30;99.90;;;;;;2614040;39;20608;-73
2023/06/26 07:28:25;;;;;;;17.60;14.07;;;22.70;99.90;;;;;;2613713;54;20563;-74
2023/06/26 07:34:13;;;;;;;15.67;14.17;;;23.20;99.90;;;;;;2614121;54;20451;-73
2023/06/26 07:40:01;;;;;;;17.33;15.00;;;23.90;99.90;;;;;;2612960;31;20810;-75
2023/06/26 07:45:51;;;;;;;16.73;15.53;;;24.10;99.90;;;;;;2613702;54;20407;-74
2023/06/26 07:51:38;;;;;;;17.80;16.07;;;24.20;99.90;;;;;;2613812;54;20439;-74
2023/06/26 07:57:26;;;;;;;18.17;17.03;;;24.30;99.90;;;;;;2614999;54;20674;-74
2023/06/26 08:03:14;;;;;;;19.03;17.27;;;24.80;99.90;;;;;;2612910;54;20154;-73
2023/06/26 08:09:04;;;;;;;18.30;16.43;;;23.80;99.90;;;;;;2612846;54;20137;-74
2023/06/26 08:14:52;;;;;;;20.33;18.57;;;23.30;99.90;;;;;;2612647;54;20430;-73
2023/06/26 08:24:33;;;;;;;22.20;20.20;;;23.80;99.90;;;;;;2612902;54;20402;-74
2023/06/26 08:30:20;;;;;;;23.20;21.40;;;23.80;99.90;;;;;;2613110;54;20980;-73
2023/06/26 08:36:08;;;;;;;34.27;30.93;;;22.60;99.90;;;;;;2613587;39;20526;-73
2023/06/26 08:41:56;;;;;;;25.53;23.70;;;23.80;99.90;;;;;;2612789;54;20624;-73
2023/06/26 08:47:47;;;;;;;23.67;21.77;;;23.50;99.90;;;;;;2612208;54;20162;-73
2023/06/26 09:00:17;;;;;;;20.67;18.90;;;24.80;99.90;;;;;;2610848;54;20394;-73
2023/06/26 09:06:05;;;;;;;18.10;16.73;;;24.90;99.90;;;;;;2613740;54;20395;-74
2023/06/26 09:11:55;;;;;;;18.37;16.53;;;23.80;99.90;;;;;;2612562;54;20154;-73
2023/06/26 09:17:43;;;;;;;22.87;17.10;;;24.10;99.90;;;;;;2613253;54;20414;-72
2023/06/26 09:26:56;;;;;;;15.90;14.70;;;24.00;99.90;;;;;;2614016;54;20414;-73
2023/06/26 09:32:43;;;;;;;18.17;16.77;;;23.70;99.90;;;;;;2612027;54;20415;-73
2023/06/26 09:38:31;;;;;;;18.07;16.40;;;23.80;99.90;;;;;;2611582;54;20274;-73
2023/06/26 09:44:19;;;;;;;16.07;15.07;;;22.90;99.90;;;;;;2610098;54;20764;-73
2023/06/26 09:56:46;;;;;;;18.50;17.30;;;25.00;99.90;;;;;;2613029;54;20415;-73
2023/06/26 10:02:34;;;;;;;19.40;17.97;;;25.10;99.90;;;;;;2613314;54;20172;-73
2023/06/26 10:08:21;;;;;;;17.27;15.90;;;25.50;99.90;;;;;;2613751;54;20132;-74
2023/06/26 10:14:11;;;;;;;17.30;16.00;;;24.10;99.90;;;;;;2611928;54;20154;-73
2023/06/26 10:20:01;;;;;;;15.87;14.77;;;26.60;99.70;;;;;;2610135;54;20785;-74
2023/06/26 10:29:15;;;;;;;16.23;15.13;;;25.00;99.90;;;;;;2613850;54;20545;-73
2023/06/26 10:35:06;;;;;;;15.23;14.33;;;23.90;99.90;;;;;;2609600;54;20415;-73
2023/06/26 10:40:53;;;;;;;16.00;14.83;;;25.20;99.90;;;;;;2612991;39;20778;-73
2023/06/26 10:46:55;;;;;;;16.53;15.53;;;25.90;88.70;;;;;;2610757;54;20161;-75
2023/06/26 10:52:43;;;;;;;16.00;14.90;;;26.50;64.90;;;;;;2612597;54;20971;-73
2023/06/26 11:04:47;;;;;;;14.50;13.60;;;26.60;59.90;;;;;;2611431;54;20419;-73
2023/06/26 11:17:27;;;;;;;16.10;15.03;;;24.20;99.90;;;;;;2611973;54;20434;-73
2023/06/26 11:23:22;;;;;;;15.33;14.43;;;24.40;99.90;;;;;;2612609;54;20418;-74
2023/06/26 11:29:11;;;;;;;16.80;15.70;;;25.80;98.60;;;;;;2612615;54;20399;-74
2023/06/26 11:35:02;;;;;;;15.50;14.50;;;26.00;91.00;;;;;;2613425;54;20717;-74
2023/06/26 11:40:49;;;;;;;14.70;14.10;;;25.20;87.00;;;;;;2614337;54;20396;-73
2023/06/26 11:46:38;;;;;;;14.50;13.80;;;25.30;61.60;;;;;;2610863;54;20137;-73
2023/06/26 11:52:26;;;;;;;15.20;14.27;;;25.60;59.20;;;;;;2611797;54;20375;-74
2023/06/26 11:58:13;;;;;;;15.20;14.30;;;24.80;57.10;;;;;;2613801;54;20163;-73
2023/06/26 12:04:08;;;;;;;15.40;14.50;;;24.60;57.90;;;;;;2611508;54;20131;-73
2023/06/26 12:09:57;;;;;;;14.70;13.60;;;24.50;54.80;;;;;;2609953;54;20391;-73
2023/06/26 12:15:45;;;;;;;15.63;14.37;;;25.10;47.00;;;;;;2612286;39;20779;-74
2023/06/26 12:21:44;;;;;;;14.73;14.13;;;25.30;38.50;;;;;;2613289;54;20141;-72
2023/06/26 12:24:37;;;;;;;15.33;14.07;;;24.60;35.50;;;;;;2613311;54;20514;-73
2023/06/26 12:27:07;;;;;;;15.97;14.93;;;24.30;34.90;;;;;;2611984;54;20458;-74
2023/06/26 12:32:55;;;;;;;14.57;13.40;;;25.40;28.00;;;;;;2609894;54;20423;-73
2023/06/26 12:38:46;;;;;;;14.60;14.00;;;26.10;26.30;;;;;;2610295;54;20387;-73
2023/06/26 12:44:34;;;;;;;15.13;14.50;;;25.10;24.00;;;;;;2607647;54;21737;-75
2023/06/26 12:50:21;;;;;;;13.50;12.90;;;24.80;21.10;;;;;;2611509;54;20152;-76
2023/06/26 12:56:10;;;;;;;13.70;12.80;;;25.20;23.30;;;;;;2612414;54;20393;-75
2023/06/26 13:01:59;;;;;;;13.00;12.40;;;25.00;21.30;;;;;;2614544;54;20427;-75
2023/06/26 13:07:47;;;;;;;14.13;13.43;;;25.00;22.00;;;;;;2612571;54;21394;-76
2023/06/26 13:13:35;;;;;;;13.17;12.67;;;25.00;20.40;;;;;;2612274;54;20664;-75
2023/06/26 13:19:22;;;;;;;14.80;14.10;;;24.10;20.70;;;;;;2611453;39;21264;-76
2023/06/26 13:29:03;;;;;;;14.37;13.50;;;24.50;18.30;;;;;;2608972;54;20435;-76
2023/06/26 13:34:52;;;;;;;14.70;13.70;;;25.00;17.60;;;;;;2608863;54;20528;-76
2023/06/26 13:40:39;;;;;;;14.47;13.50;;;26.10;13.30;;;;;;2611582;54;20495;-77
2023/06/26 13:46:29;;;;;;;13.93;13.23;;;25.90;13.20;;;;;;2610457;54;20259;-76
2023/06/26 13:52:17;;;;;;;14.00;13.30;;;25.50;11.50;;;;;;2611466;54;20415;-76
2023/06/26 13:58:06;;;;;;;13.20;12.40;;;24.80;11.60;;;;;;2612673;54;20799;-76
2023/06/26 14:03:54;;;;;;;13.20;12.40;;;25.50;12.00;;;;;;2613326;54;20467;-77
2023/06/26 14:09:42;;;;;;;14.37;13.47;;;26.20;9.70;;;;;;2612137;54;20399;-77
2023/06/26 14:15:30;;;;;;;14.50;13.63;;;24.90;10.70;;;;;;2612898;54;20130;-76
2023/06/26 14:21:18;;;;;;;13.63;13.03;;;25.70;6.40;;;;;;2614415;39;20768;-76
2023/06/26 14:24:34;;;;;;;14.17;13.20;;;25.40;4.70;;;;;;2610353;47;20435;-76
2023/06/26 14:26:59;;;;;;;13.47;12.87;;;25.70;4.70;;;;;;2611741;54;20152;-76
2023/06/26 14:32:47;;;;;;;13.93;13.23;;;25.90;2.70;;;;;;2613790;54;20652;-76
2023/06/26 14:38:35;;;;;;;13.50;12.70;;;25.20;4.90;;;;;;2611613;54;20151;-76
2023/06/26 14:44:22;;;;;;;13.53;12.93;;;25.40;3.10;;;;;;2613093;54;20150;-76
2023/06/26 14:50:10;;;;;;;14.27;13.53;;;24.60;7.80;;;;;;2612901;54;20134;-76
2023/06/26 14:55:58;;;;;;;13.70;13.10;;;24.60;4.70;;;;;;2614422;54;20121;-76
2023/06/26 15:01:45;;;;;;;13.47;12.87;;;24.60;3.70;;;;;;2612212;54;20155;-76
2023/06/26 15:07:33;;;;;;;13.50;12.97;;;25.20;6.60;;;;;;2613449;54;20152;-75
2023/06/26 15:13:21;;;;;;;13.20;12.60;;;24.70;5.30;;;;;;2613505;54;20150;-77
2023/06/26 15:19:09;;;;;;;12.60;12.00;;;24.20;3.40;;;;;;2612886;39;20582;-76
2023/06/26 15:29:05;;;;;;;13.80;13.00;;;24.90;7.80;;;;;;2612663;54;20379;-75
2023/06/26 15:34:54;;;;;;;13.43;12.73;;;24.60;13.20;;;;;;2612989;54;20435;-77
2023/06/26 15:40:42;;;;;;;13.77;13.17;;;24.90;12.40;;;;;;2614215;54;21401;-75
2023/06/26 15:46:31;;;;;;;13.57;12.97;;;24.20;12.30;;;;;;2612871;54;20130;-76
2023/06/26 15:52:18;;;;;;;13.77;13.00;;;23.60;14.40;;;;;;2613836;54;20407;-76
2023/06/26 15:58:06;;;;;;;13.70;12.90;;;23.60;17.70;;;;;;2614675;54;20637;-76
2023/06/26 16:03:54;;;;;;;13.13;12.63;;;23.00;12.20;;;;;;2614349;54;20658;-76
2023/06/26 16:09:41;;;;;;;14.60;13.80;;;22.90;13.00;;;;;;2614914;54;20133;-75
2023/06/26 16:15:29;;;;;;;13.57;12.87;;;22.80;13.00;;;;;;2614160;54;20150;-74
2023/06/26 16:21:17;;;;;;;14.07;13.37;;;23.10;13.00;;;;;;2615100;54;20964;-76
2023/06/26 16:24:35;;;;;;;14.03;13.33;;;23.30;13.20;;;;;;2614140;47;20415;-75
2023/06/26 16:27:01;;;;;;;14.10;13.40;;;23.00;10.40;;;;;;2612774;39;20557;-75
2023/06/26 16:32:49;;;;;;;15.00;14.10;;;22.70;13.00;;;;;;2613348;54;20173;-75
2023/06/26 16:38:38;;;;;;;14.57;13.87;;;22.60;16.10;;;;;;2612915;54;20134;-75
2023/06/26 16:44:25;;;;;;;14.63;14.07;;;22.60;21.20;;;;;;2615086;54;20415;-76
2023/06/26 16:50:13;;;;;;;15.07;14.30;;;22.30;20.00;;;;;;2614125;54;20154;-75
2023/06/26 16:56:01;;;;;;;16.00;15.17;;;22.30;22.40;;;;;;2614746;39;20550;-76
2023/06/26 17:01:49;;;;;;;14.30;13.60;;;21.60;19.60;;;;;;2613634;54;20985;-76
2023/06/26 17:07:38;;;;;;;15.30;14.60;;;21.80;21.80;;;;;;2613957;54;20660;-75
2023/06/26 17:13:26;;;;;;;13.80;13.30;;;21.60;22.20;;;;;;2614838;54;20388;-75
2023/06/26 17:19:14;;;;;;;15.60;14.97;;;21.80;22.80;;;;;;2613579;54;20162;-76
2023/06/26 17:29:04;;;;;;;14.40;13.80;;;21.70;17.60;;;;;;2613379;54;20427;-75
2023/06/26 17:34:52;;;;;;;14.77;14.07;;;21.80;18.70;;;;;;2614595;39;20509;-76
2023/06/26 17:40:40;;;;;;;14.53;14.03;;;21.90;21.80;;;;;;2610055;54;20391;-76
2023/06/26 17:46:28;;;;;;;15.90;15.20;;;21.90;23.50;;;;;;2613440;54;20138;-75
2023/06/26 17:52:16;;;;;;;15.60;15.00;;;22.00;24.10;;;;;;2613467;54;20677;-76
2023/06/26 17:58:04;;;;;;;16.50;15.80;;;21.90;23.10;;;;;;2613524;54;20130;-75
2023/06/26 18:03:52;;;;;;;15.63;14.47;;;21.90;26.30;;;;;;2614606;39;20702;-76
2023/06/26 18:09:39;;;;;;;14.37;13.87;;;21.70;25.70;;;;;;2612584;54;21388;-75
2023/06/26 18:15:27;;;;;;;14.27;13.67;;;21.70;25.90;;;;;;2614307;39;20561;-75
2023/06/26 18:21:15;;;;;;;15.63;14.50;;;21.60;24.80;;;;;;2613543;46;20170;-75
2023/06/26 18:24:36;;;;;;;15.00;14.20;;;21.50;24.90;;;;;;2612057;47;20477;-75
2023/06/26 18:27:02;;;;;;;15.20;14.50;;;21.60;25.20;;;;;;2611992;47;20174;-76
2023/06/26 18:32:49;;;;;;;15.40;14.70;;;21.60;22.80;;;;;;2612829;54;21291;-75
2023/06/26 18:38:37;;;;;;;14.57;13.77;;;21.80;21.30;;;;;;2614241;54;20223;-75
2023/06/26 18:44:25;;;;;;;14.57;13.83;;;21.60;22.00;;;;;;2613934;54;20211;-74
2023/06/26 18:50:14;;;;;;;14.50;13.90;;;21.20;22.50;;;;;;2613283;54;21046;-75
2023/06/26 18:56:03;;;;;;;14.60;14.00;;;20.90;26.00;;;;;;2613311;54;20395;-75
2023/06/26 19:01:50;;;;;;;15.23;14.57;;;20.70;26.00;;;;;;2613791;54;20395;-76
2023/06/26 19:07:38;;;;;;;15.17;14.47;;;20.40;25.60;;;;;;2613421;54;20139;-75
2023/06/26 19:13:26;;;;;;;14.93;14.23;;;20.30;27.50;;;;;;2612914;54;20174;-75
2023/06/26 19:19:14;;;;;;;15.40;14.80;;;20.10;29.00;;;;;;2612645;54;20416;-74
2023/06/26 19:29:05;;;;;;;15.53;14.63;;;19.90;32.10;;;;;;2613761;54;20452;-75
2023/06/26 19:34:52;;;;;;;14.13;13.57;;;19.70;33.00;;;;;;2611376;54;20383;-74
2023/06/26 19:40:40;;;;;;;16.13;15.33;;;19.60;34.80;;;;;;2611532;54;20134;-75
2023/06/26 19:46:29;;;;;;;16.37;15.60;;;19.30;40.10;;;;;;2611897;54;20247;-76
2023/06/26 19:52:17;;;;;;;14.80;14.20;;;19.20;43.50;;;;;;2613762;39;20777;-75
2023/06/26 19:58:05;;;;;;;14.97;14.37;;;19.00;45.20;;;;;;2612806;54;20134;-74
2023/06/26 20:03:54;;;;;;;14.60;13.90;;;19.00;48.80;;;;;;2613634;54;21314;-75
2023/06/26 20:09:42;;;;;;;16.17;15.30;;;18.80;50.80;;;;;;2611889;54;20459;-76
2023/06/26 20:21:43;;;;;;;14.90;14.30;;;18.60;58.30;;;;;;2612584;54;20382;-74
2023/06/26 20:24:36;;;;;;;15.50;14.90;;;18.50;61.50;;;;;;2613325;54;20412;-75
2023/06/26 20:27:02;;;;;;;15.30;14.70;;;18.30;64.50;;;;;;2612264;47;20177;-74
2023/06/26 20:32:50;;;;;;;15.40;14.80;;;18.20;70.30;;;;;;2613546;39;20777;-75
2023/06/26 20:38:38;;;;;;;15.07;14.17;;;18.20;75.30;;;;;;2608819;54;20218;-76
2023/06/26 20:44:26;;;;;;;16.67;15.83;;;18.00;82.60;;;;;;2613944;54;20130;-74
2023/06/26 20:50:14;;;;;;;15.20;14.50;;;18.10;86.10;;;;;;2612640;54;20487;-74
2023/06/26 20:56:02;;;;;;;15.30;14.50;;;17.80;91.20;;;;;;2609608;54;20422;-76
2023/06/26 21:01:50;;;;;;;15.23;14.33;;;17.60;98.60;;;;;;2610379;54;20472;-75
2023/06/26 21:07:40;;;;;;;15.27;14.53;;;17.50;99.90;;;;;;2611770;54;20138;-75
2023/06/26 21:13:28;;;;;;;15.80;15.00;;;17.40;99.90;;;;;;2611669;54;20399;-75
2023/06/26 21:19:16;;;;;;;15.90;15.20;;;17.40;99.90;;;;;;2612053;54;20174;-76
2023/06/26 21:29:04;;;;;;;14.80;14.20;;;17.20;99.90;;;;;;2614926;54;21015;-75
2023/06/26 21:34:51;;;;;;;15.70;15.00;;;17.00;99.90;;;;;;2610625;54;20416;-76
2023/06/26 21:40:39;;;;;;;14.07;13.50;;;17.00;99.90;;;;;;2612254;54;20182;-75
2023/06/26 21:46:26;;;;;;;14.40;13.70;;;17.00;99.90;;;;;;2613668;54;20431;-75
2023/06/26 21:52:14;;;;;;;14.17;13.37;;;16.80;99.90;;;;;;2611305;39;20236;-76
2023/06/26 21:58:02;;;;;;;14.27;13.47;;;16.60;99.90;;;;;;2610779;54;20149;-75
2023/06/26 22:03:50;;;;;;;14.97;14.13;;;16.30;99.90;;;;;;2610976;54;20573;-75
2023/06/26 22:09:38;;;;;;;14.80;14.10;;;16.10;99.90;;;;;;2609615;54;20134;-75
2023/06/26 22:15:25;;;;;;;15.60;14.60;;;16.10;99.90;;;;;;2610328;54;20138;-74
2023/06/26 22:21:13;;;;;;;15.00;14.20;;;15.90;99.90;;;;;;2610295;46;20153;-74
2023/06/26 22:27:20;;;;;;;14.17;13.17;;;15.90;99.90;;;;;;2608497;39;20313;-73
2023/06/26 22:33:07;;;;;;;13.90;13.30;;;15.80;99.90;;;;;;2610039;54;20612;-74
2023/06/26 22:38:54;;;;;;;14.67;13.97;;;15.70;99.90;;;;;;2611354;54;20147;-74
2023/06/26 22:41:57;;;;;;;14.30;13.60;;;15.70;99.90;;;;;;2613837;39;21024;-73
2023/06/26 22:44:22;;;;;;;13.17;12.67;;;15.50;99.90;;;;;;2613043;47;20711;-73
2023/06/26 22:50:10;;;;;;;13.50;12.80;;;15.40;99.90;;;;;;2612832;54;20138;-74
2023/06/26 22:55:57;;;;;;;13.67;12.63;;;15.20;99.90;;;;;;2609146;54;20938;-72
2023/06/26 23:01:45;;;;;;;13.93;13.03;;;15.00;99.90;;;;;;2610410;54;20127;-74
2023/06/26 23:07:34;;;;;;;13.13;12.53;;;15.00;99.90;;;;;;2609076;54;20134;-74
2023/06/26 23:13:22;;;;;;;12.87;12.20;;;15.00;99.90;;;;;;2608267;54;20479;-73
2023/06/26 23:19:10;;;;;;;12.93;12.20;;;15.10;99.90;;;;;;2611612;39;20528;-73
2023/06/26 23:34:51;;;;;;;12.37;11.77;;;14.70;99.90;;;;;;2611792;54;20427;-73
2023/06/26 23:40:39;;;;;;;12.80;12.03;;;14.70;99.90;;;;;;2613451;54;20158;-73
2023/06/26 23:46:28;;;;;;;12.30;11.60;;;14.80;99.90;;;;;;2613638;54;20198;-74
2023/06/26 23:52:15;;;;;;;12.60;12.00;;;14.80;99.90;;;;;;2610294;54;20396;-74
2023/06/26 23:58:03;;;;;;;12.57;11.77;;;14.80;99.90;;;;;;2609916;54;20126;-73
